createdAt,value
2023-03-17T00:00:30.470Z,57.27
2023-03-17T00:01:31.229Z,57.27
2023-03-17T00:02:30.315Z,57.48
2023-03-17T00:03:30.463Z,57.58
2023-03-17T00:04:30.301Z,57.48
2023-03-17T00:05:30.248Z,57.68
2023-03-17T00:06:30.314Z,57.58
2023-03-17T00:07:30.243Z,57.48
2023-03-17T00:08:30.244Z,57.58
2023-03-17T00:09:30.252Z,57.58
2023-03-17T00:10:30.481Z,57.37
2023-03-17T00:11:30.214Z,57.58
2023-03-17T00:12:30.112Z,57.58
2023-03-17T00:13:30.095Z,57.37
2023-03-17T00:14:30.059Z,57.68
2023-03-17T00:15:30.033Z,57.71
2023-03-17T00:16:30.034Z,57.50
2023-03-17T00:17:30.009Z,57.60
2023-03-17T00:18:30.055Z,57.50
2023-03-17T00:19:30.058Z,57.40
2023-03-17T00:20:30.195Z,57.50
2023-03-17T00:21:29.984Z,57.71
2023-03-17T00:22:29.957Z,57.92
2023-03-17T00:23:30.035Z,57.92
2023-03-17T00:24:30.034Z,57.60
2023-03-17T00:25:29.958Z,57.81
2023-03-17T00:26:29.951Z,57.81
2023-03-17T00:27:29.922Z,57.81
2023-03-17T00:28:29.915Z,57.71
2023-03-17T00:29:29.896Z,57.71
2023-03-17T00:30:30.210Z,57.92
2023-03-17T00:31:30.055Z,58.02
2023-03-17T00:32:29.940Z,57.92
2023-03-17T00:33:29.860Z,58.04
2023-03-17T00:34:29.838Z,58.23
2023-03-17T00:35:29.934Z,58.25
2023-03-17T00:36:29.833Z,58.04
2023-03-17T00:37:29.795Z,58.25
2023-03-17T00:38:29.850Z,58.15
2023-03-17T00:39:29.780Z,58.02
2023-03-17T00:40:30.018Z,57.92
2023-03-17T00:41:29.770Z,57.92
2023-03-17T00:42:29.745Z,58.23
2023-03-17T00:43:30.721Z,58.12
2023-03-17T00:44:29.719Z,58.02
2023-03-17T00:45:29.710Z,58.12
2023-03-17T00:46:29.765Z,58.12
2023-03-17T00:47:29.693Z,58.02
2023-03-17T00:48:29.673Z,58.12
2023-03-17T00:49:29.696Z,58.12
2023-03-17T00:50:29.898Z,58.46
2023-03-17T00:51:29.673Z,58.46
2023-03-17T00:52:29.666Z,58.67
2023-03-17T00:53:29.616Z,58.46
2023-03-17T00:54:29.643Z,58.77
2023-03-17T00:55:29.605Z,58.77
2023-03-17T00:56:29.589Z,58.87
2023-03-17T00:57:29.577Z,59.08
2023-03-17T00:58:29.573Z,59.19
2023-03-17T00:59:29.588Z,59.08
2023-03-17T01:00:30.119Z,58.87
2023-03-17T01:01:29.540Z,59.08
2023-03-17T01:02:29.589Z,59.19
2023-03-17T01:03:29.510Z,59.39
2023-03-17T01:04:29.521Z,59.39
2023-03-17T01:05:29.511Z,59.29
2023-03-17T01:06:29.500Z,59.29
2023-03-17T01:07:29.466Z,59.39
2023-03-17T01:08:29.471Z,59.39
2023-03-17T01:09:29.462Z,59.60
2023-03-17T01:10:29.775Z,59.60
2023-03-17T01:11:29.456Z,59.70
2023-03-17T01:12:29.420Z,59.80
2023-03-17T01:13:29.413Z,59.80
2023-03-17T01:14:29.445Z,59.80
2023-03-17T01:15:29.465Z,59.91
2023-03-17T01:16:29.478Z,59.83
2023-03-17T01:17:29.371Z,60.01
2023-03-17T01:18:29.407Z,60.35
2023-03-17T01:19:29.336Z,60.22
2023-03-17T01:20:29.635Z,60.22
2023-03-17T01:21:29.354Z,60.22
2023-03-17T01:22:29.312Z,60.32
2023-03-17T01:23:29.300Z,60.22
2023-03-17T01:24:29.295Z,60.22
2023-03-17T01:25:29.297Z,60.11
2023-03-17T01:26:29.315Z,60.11
2023-03-17T01:27:29.256Z,60.22
2023-03-17T01:28:29.275Z,60.22
2023-03-17T01:29:29.281Z,60.42
2023-03-17T01:30:29.541Z,60.32
2023-03-17T01:31:29.269Z,60.32
2023-03-17T01:32:29.245Z,60.42
2023-03-17T01:33:29.218Z,60.53
2023-03-17T01:34:29.201Z,60.63
2023-03-17T01:35:29.186Z,60.63
2023-03-17T01:36:29.215Z,60.53
2023-03-17T01:37:29.155Z,60.42
2023-03-17T01:38:29.144Z,60.53
2023-03-17T01:39:29.243Z,60.74
2023-03-17T01:40:29.489Z,60.74
2023-03-17T01:41:29.155Z,60.94
2023-03-17T01:42:29.101Z,60.94
2023-03-17T01:43:29.102Z,61.05
2023-03-17T01:44:29.201Z,60.94
2023-03-17T01:45:29.087Z,61.15
2023-03-17T01:46:29.096Z,61.05
2023-03-17T01:47:29.043Z,61.05
2023-03-17T01:48:29.040Z,61.05
2023-03-17T01:49:29.021Z,61.15
2023-03-17T01:50:29.376Z,61.25
2023-03-17T01:51:29.042Z,61.25
2023-03-17T01:52:29.008Z,61.49
2023-03-17T01:53:28.978Z,61.38
2023-03-17T01:54:28.966Z,61.49
2023-03-17T01:55:28.963Z,61.49
2023-03-17T01:56:28.970Z,61.38
2023-03-17T01:57:28.948Z,61.59
2023-03-17T01:58:28.935Z,61.69
2023-03-17T01:59:28.915Z,61.59
2023-03-17T02:00:29.165Z,61.59
2023-03-17T02:01:28.947Z,61.69
2023-03-17T02:02:28.878Z,61.59
2023-03-17T02:03:28.870Z,61.59
2023-03-17T02:04:28.949Z,61.80
2023-03-17T02:05:28.853Z,61.80
2023-03-17T02:06:28.874Z,61.69
2023-03-17T02:07:28.841Z,61.80
2023-03-17T02:08:28.859Z,61.90
2023-03-17T02:09:28.819Z,61.90
2023-03-17T02:10:29.199Z,61.59
2023-03-17T02:11:28.813Z,61.59
2023-03-17T02:12:28.773Z,61.69
2023-03-17T02:13:28.768Z,61.59
2023-03-17T02:14:28.815Z,61.59
2023-03-17T02:15:28.748Z,61.69
2023-03-17T02:16:28.781Z,61.69
2023-03-17T02:17:28.728Z,61.69
2023-03-17T02:18:28.706Z,61.59
2023-03-17T02:19:28.734Z,61.80
2023-03-17T02:20:29.145Z,61.69
2023-03-17T02:21:28.734Z,61.80
2023-03-17T02:22:28.675Z,61.80
2023-03-17T02:23:28.664Z,61.59
2023-03-17T02:24:28.650Z,61.59
2023-03-17T02:25:28.643Z,61.69
2023-03-17T02:26:28.655Z,61.69
2023-03-17T02:27:28.621Z,61.80
2023-03-17T02:28:28.603Z,61.59
2023-03-17T02:29:28.604Z,61.69
2023-03-17T02:30:28.780Z,61.69
2023-03-17T02:31:28.590Z,61.80
2023-03-17T02:32:28.602Z,61.69
2023-03-17T02:33:28.561Z,61.69
2023-03-17T02:34:28.574Z,61.59
2023-03-17T02:35:28.539Z,61.28
2023-03-17T02:36:28.564Z,61.59
2023-03-17T02:37:28.517Z,61.59
2023-03-17T02:38:28.504Z,61.83
2023-03-17T02:39:28.498Z,61.83
2023-03-17T02:40:28.695Z,61.93
2023-03-17T02:41:28.474Z,62.04
2023-03-17T02:42:28.449Z,61.93
2023-03-17T02:43:28.462Z,61.80
2023-03-17T02:44:28.446Z,61.80
2023-03-17T02:45:28.421Z,61.80
2023-03-17T02:46:28.468Z,61.80
2023-03-17T02:47:28.429Z,61.69
2023-03-17T02:48:28.386Z,61.69
2023-03-17T02:49:28.395Z,61.80
2023-03-17T02:50:28.645Z,61.52
2023-03-17T02:51:28.382Z,61.49
2023-03-17T02:52:28.361Z,61.69
2023-03-17T02:53:28.341Z,61.59
2023-03-17T02:54:28.357Z,61.59
2023-03-17T02:55:28.327Z,61.49
2023-03-17T02:56:28.316Z,61.59
2023-03-17T02:57:28.329Z,61.59
2023-03-17T02:58:28.280Z,61.41
2023-03-17T02:59:28.307Z,61.38
2023-03-17T03:00:28.580Z,61.38
2023-03-17T03:01:28.267Z,61.38
2023-03-17T03:02:28.312Z,61.38
2023-03-17T03:03:28.233Z,61.49
2023-03-17T03:04:28.217Z,61.41
2023-03-17T03:05:28.217Z,61.28
2023-03-17T03:06:28.217Z,61.21
2023-03-17T03:07:28.204Z,61.31
2023-03-17T03:08:28.172Z,61.41
2023-03-17T03:09:28.181Z,61.52
2023-03-17T03:10:28.550Z,61.52
2023-03-17T03:11:28.145Z,61.62
2023-03-17T03:12:28.147Z,61.41
2023-03-17T03:13:28.133Z,61.41
2023-03-17T03:14:28.125Z,61.21
2023-03-17T03:15:28.115Z,61.28
2023-03-17T03:16:28.127Z,61.38
2023-03-17T03:17:28.106Z,60.97
2023-03-17T03:18:28.095Z,61.00
2023-03-17T03:19:28.082Z,60.69
2023-03-17T03:20:28.345Z,61.00
2023-03-17T03:21:28.041Z,61.31
2023-03-17T03:22:28.031Z,61.10
2023-03-17T03:23:28.012Z,61.10
2023-03-17T03:24:28.000Z,60.89
2023-03-17T03:25:28.124Z,60.89
2023-03-17T03:26:27.984Z,61.10
2023-03-17T03:27:27.994Z,61.00
2023-03-17T03:28:27.974Z,61.31
2023-03-17T03:29:27.976Z,61.52
2023-03-17T03:30:27.934Z,61.21
2023-03-17T03:31:28.028Z,61.10
2023-03-17T03:32:27.961Z,61.00
2023-03-17T03:33:27.903Z,61.10
2023-03-17T03:34:27.967Z,61.00
2023-03-17T03:35:27.948Z,61.00
2023-03-17T03:36:28.001Z,60.79
2023-03-17T03:37:27.889Z,60.69
2023-03-17T03:38:27.853Z,60.79
2023-03-17T03:39:28.135Z,60.89
2023-03-17T03:40:28.163Z,60.79
2023-03-17T03:41:27.851Z,60.97
2023-03-17T03:42:27.829Z,61.00
2023-03-17T03:43:27.799Z,60.66
2023-03-17T03:44:27.794Z,61.21
2023-03-17T03:45:27.804Z,60.56
2023-03-17T03:46:27.863Z,60.69
2023-03-17T03:47:27.761Z,60.79
2023-03-17T03:48:27.736Z,60.77
2023-03-17T03:49:27.751Z,60.66
2023-03-17T03:50:27.888Z,60.27
2023-03-17T03:51:27.713Z,60.25
2023-03-17T03:52:27.705Z,60.35
2023-03-17T03:53:27.688Z,60.46
2023-03-17T03:54:27.689Z,60.48
2023-03-17T03:55:27.675Z,60.38
2023-03-17T03:56:27.665Z,60.58
2023-03-17T03:57:27.666Z,60.27
2023-03-17T03:58:27.649Z,60.27
2023-03-17T03:59:27.630Z,60.48
2023-03-17T04:00:27.673Z,60.69
2023-03-17T04:01:27.625Z,60.69
2023-03-17T04:02:27.668Z,60.58
2023-03-17T04:03:27.585Z,60.27
2023-03-17T04:04:27.593Z,60.17
2023-03-17T04:05:27.583Z,60.17
2023-03-17T04:06:27.561Z,60.27
2023-03-17T04:07:27.570Z,60.48
2023-03-17T04:08:27.544Z,60.58
2023-03-17T04:09:27.518Z,60.48
2023-03-17T04:10:27.500Z,60.58
2023-03-17T04:11:27.540Z,60.48
2023-03-17T04:12:27.503Z,60.48
2023-03-17T04:13:27.469Z,60.79
2023-03-17T04:14:27.463Z,61.10
2023-03-17T04:15:27.487Z,60.79
2023-03-17T04:16:27.544Z,60.69
2023-03-17T04:17:27.468Z,60.69
2023-03-17T04:18:27.515Z,60.48
2023-03-17T04:19:27.421Z,60.48
2023-03-17T04:20:27.449Z,60.48
2023-03-17T04:21:27.408Z,60.48
2023-03-17T04:22:27.398Z,60.38
2023-03-17T04:23:27.394Z,60.48
2023-03-17T04:24:27.404Z,60.89
2023-03-17T04:25:27.381Z,60.69
2023-03-17T04:26:27.387Z,60.69
2023-03-17T04:27:27.412Z,60.38
2023-03-17T04:28:27.371Z,60.51
2023-03-17T04:29:27.300Z,60.61
2023-03-17T04:30:27.337Z,60.61
2023-03-17T04:31:27.491Z,60.82
2023-03-17T04:32:27.383Z,60.93
2023-03-17T04:33:27.257Z,60.61
2023-03-17T04:34:27.271Z,60.79
2023-03-17T04:35:27.298Z,60.69
2023-03-17T04:36:27.239Z,60.69
2023-03-17T04:37:27.222Z,60.79
2023-03-17T04:38:27.201Z,60.38
2023-03-17T04:39:27.210Z,60.38
2023-03-17T04:40:27.206Z,60.58
2023-03-17T04:41:27.205Z,60.48
2023-03-17T04:42:27.190Z,60.41
2023-03-17T04:43:27.165Z,60.61
2023-03-17T04:44:27.168Z,60.41
2023-03-17T04:45:27.229Z,60.38
2023-03-17T04:46:27.126Z,60.30
2023-03-17T04:47:27.122Z,60.30
2023-03-17T04:48:27.127Z,60.51
2023-03-17T04:49:27.048Z,60.51
2023-03-17T04:50:27.031Z,60.51
2023-03-17T04:51:27.120Z,60.41
2023-03-17T04:52:27.083Z,60.51
2023-03-17T04:53:27.097Z,60.51
2023-03-17T04:54:27.031Z,60.30
2023-03-17T04:55:27.010Z,60.41
2023-03-17T04:56:28.040Z,60.41
2023-03-17T04:57:27.009Z,60.20
2023-03-17T04:58:30.838Z,60.30
2023-03-17T04:59:26.977Z,60.41
2023-03-17T05:00:26.969Z,60.20
2023-03-17T05:01:26.970Z,60.41
2023-03-17T05:02:26.914Z,60.30
2023-03-17T05:03:28.085Z,60.30
2023-03-17T05:04:31.636Z,60.41
2023-03-17T05:05:26.903Z,60.30
2023-03-17T05:06:26.852Z,60.20
2023-03-17T05:07:26.893Z,60.41
2023-03-17T05:08:27.519Z,60.51
2023-03-17T05:09:26.964Z,60.41
2023-03-17T05:10:27.511Z,60.41
2023-03-17T05:11:26.974Z,60.30
2023-03-17T05:12:26.881Z,60.41
2023-03-17T05:13:26.802Z,60.10
2023-03-17T05:14:26.773Z,60.10
2023-03-17T05:15:27.506Z,60.20
2023-03-17T05:16:26.789Z,60.20
2023-03-17T05:17:26.740Z,60.10
2023-03-17T05:18:26.733Z,60.10
2023-03-17T05:19:26.716Z,60.20
2023-03-17T05:20:26.780Z,59.89
2023-03-17T05:21:26.692Z,59.78
2023-03-17T05:22:26.683Z,59.89
2023-03-17T05:23:26.695Z,59.99
2023-03-17T05:24:26.674Z,59.68
2023-03-17T05:25:26.667Z,59.58
2023-03-17T05:26:26.641Z,59.55
2023-03-17T05:27:26.680Z,59.66
2023-03-17T05:28:26.622Z,59.58
2023-03-17T05:29:26.606Z,59.68
2023-03-17T05:30:26.592Z,59.68
2023-03-17T05:31:26.658Z,59.68
2023-03-17T05:32:26.622Z,59.58
2023-03-17T05:33:26.591Z,59.37
2023-03-17T05:34:26.546Z,59.47
2023-03-17T05:35:26.550Z,59.78
2023-03-17T05:36:26.548Z,59.89
2023-03-17T05:37:26.707Z,59.68
2023-03-17T05:38:26.536Z,59.99
2023-03-17T05:39:26.503Z,59.78
2023-03-17T05:40:26.495Z,59.58
2023-03-17T05:41:26.518Z,59.58
2023-03-17T05:42:26.477Z,59.68
2023-03-17T05:43:26.473Z,59.78
2023-03-17T05:44:26.445Z,59.78
2023-03-17T05:45:26.455Z,59.68
2023-03-17T05:46:26.501Z,59.68
2023-03-17T05:47:26.631Z,59.89
2023-03-17T05:48:26.406Z,59.68
2023-03-17T05:49:26.402Z,59.75
2023-03-17T05:50:26.405Z,60.06
2023-03-17T05:51:26.385Z,60.38
2023-03-17T05:52:26.422Z,59.45
2023-03-17T05:53:26.349Z,59.75
2023-03-17T05:54:26.344Z,59.55
2023-03-17T05:55:26.349Z,59.14
2023-03-17T05:56:26.328Z,59.24
2023-03-17T05:57:26.334Z,59.24
2023-03-17T05:58:26.305Z,59.24
2023-03-17T05:59:26.319Z,59.03
2023-03-17T06:00:26.272Z,59.24
2023-03-17T06:01:26.295Z,59.14
2023-03-17T06:02:26.415Z,59.24
2023-03-17T06:03:26.300Z,59.24
2023-03-17T06:04:26.244Z,59.24
2023-03-17T06:05:26.390Z,59.03
2023-03-17T06:06:26.262Z,59.14
2023-03-17T06:07:26.410Z,59.14
2023-03-17T06:08:26.241Z,59.14
2023-03-17T06:09:26.201Z,59.24
2023-03-17T06:10:26.197Z,59.24
2023-03-17T06:11:26.187Z,59.14
2023-03-17T06:12:26.168Z,58.93
2023-03-17T06:13:26.209Z,58.93
2023-03-17T06:14:27.221Z,58.69
2023-03-17T06:15:26.186Z,58.59
2023-03-17T06:16:26.211Z,58.72
2023-03-17T06:17:26.113Z,58.80
2023-03-17T06:18:26.114Z,58.72
2023-03-17T06:19:26.104Z,58.80
2023-03-17T06:20:26.082Z,58.90
2023-03-17T06:21:26.055Z,58.90
2023-03-17T06:22:26.041Z,58.90
2023-03-17T06:23:26.070Z,58.80
2023-03-17T06:24:26.032Z,58.69
2023-03-17T06:25:26.072Z,58.90
2023-03-17T06:26:26.056Z,58.38
2023-03-17T06:27:26.073Z,58.41
2023-03-17T06:28:26.080Z,58.72
2023-03-17T06:29:25.987Z,58.69
2023-03-17T06:30:26.043Z,58.51
2023-03-17T06:31:26.001Z,58.62
2023-03-17T06:32:25.990Z,59.00
2023-03-17T06:33:26.171Z,58.90
2023-03-17T06:34:26.631Z,58.69
2023-03-17T06:35:25.980Z,58.90
2023-03-17T06:36:26.029Z,58.69
2023-03-17T06:37:25.958Z,58.38
2023-03-17T06:38:26.132Z,58.18
2023-03-17T06:39:26.144Z,58.28
2023-03-17T06:40:26.144Z,58.28
2023-03-17T06:41:26.059Z,58.04
2023-03-17T06:42:25.864Z,58.15
2023-03-17T06:43:25.945Z,57.94
2023-03-17T06:44:25.867Z,57.84
2023-03-17T06:45:25.902Z,57.84
2023-03-17T06:46:25.833Z,57.53
2023-03-17T06:47:26.166Z,57.63
2023-03-17T06:48:26.172Z,57.63
2023-03-17T06:49:25.776Z,57.53
2023-03-17T06:50:25.764Z,57.32
2023-03-17T06:51:25.831Z,57.32
2023-03-17T06:52:25.722Z,57.42
2023-03-17T06:53:25.733Z,57.53
2023-03-17T06:54:25.701Z,57.32
2023-03-17T06:55:25.689Z,57.01
2023-03-17T06:56:30.361Z,56.98
2023-03-17T06:57:25.682Z,56.98
2023-03-17T06:58:25.736Z,56.88
2023-03-17T06:59:25.718Z,56.98
2023-03-17T07:00:25.672Z,56.98
2023-03-17T07:01:25.708Z,56.57
2023-03-17T07:02:25.686Z,56.57
2023-03-17T07:03:25.691Z,56.47
2023-03-17T07:04:25.714Z,56.57
2023-03-17T07:05:25.621Z,56.57
2023-03-17T07:06:27.028Z,56.54
2023-03-17T07:07:25.575Z,56.54
2023-03-17T07:08:25.556Z,56.34
2023-03-17T07:09:25.622Z,56.13
2023-03-17T07:10:25.785Z,55.93
2023-03-17T07:11:26.266Z,55.90
2023-03-17T07:12:25.835Z,55.28
2023-03-17T07:13:25.828Z,55.28
2023-03-17T07:14:25.712Z,55.28
2023-03-17T07:15:25.538Z,55.49
2023-03-17T07:16:25.549Z,55.46
2023-03-17T07:17:25.471Z,55.26
2023-03-17T07:18:27.538Z,54.94
2023-03-17T07:19:25.558Z,54.84
2023-03-17T07:20:25.497Z,54.84
2023-03-17T07:21:25.415Z,54.84
2023-03-17T07:22:25.427Z,54.63
2023-03-17T07:23:25.442Z,54.43
2023-03-17T07:24:25.380Z,54.53
2023-03-17T07:25:25.671Z,54.63
2023-03-17T07:26:25.669Z,54.63
2023-03-17T07:27:25.410Z,54.53
2023-03-17T07:28:25.427Z,54.40
2023-03-17T07:29:25.333Z,54.40
2023-03-17T07:30:25.325Z,54.19
2023-03-17T07:31:25.326Z,54.09
2023-03-17T07:32:25.346Z,53.68
2023-03-17T07:33:25.300Z,53.89
2023-03-17T07:34:25.412Z,53.74
2023-03-17T07:35:25.384Z,52.55
2023-03-17T07:36:25.301Z,51.06
2023-03-17T07:37:25.277Z,50.01
2023-03-17T07:38:25.315Z,50.11
2023-03-17T07:39:25.484Z,49.96
2023-03-17T07:40:25.243Z,48.72
2023-03-17T07:41:25.213Z,48.83
2023-03-17T07:42:25.285Z,48.83
2023-03-17T07:43:25.198Z,48.71
2023-03-17T07:44:25.259Z,48.71
2023-03-17T07:45:25.464Z,48.39
2023-03-17T07:46:25.171Z,47.88
2023-03-17T07:47:25.142Z,47.63
2023-03-17T07:48:25.143Z,47.20
2023-03-17T07:49:40.061Z,46.67
2023-03-17T07:50:25.169Z,46.56
2023-03-17T07:51:25.097Z,46.67
2023-03-17T07:52:25.102Z,46.69
2023-03-17T07:53:25.096Z,47.34
2023-03-17T07:54:25.057Z,47.88
2023-03-17T07:55:25.088Z,48.21
2023-03-17T07:56:25.066Z,48.42
2023-03-17T07:57:25.130Z,48.85
2023-03-17T07:58:25.097Z,49.37
2023-03-17T07:59:25.002Z,49.47
2023-03-17T08:00:25.030Z,49.16
2023-03-17T08:01:24.988Z,48.68
2023-03-17T08:02:27.016Z,46.72
2023-03-17T08:03:25.090Z,44.10
2023-03-17T08:04:24.982Z,43.14
2023-03-17T08:05:24.943Z,42.08
2023-03-17T08:06:24.946Z,41.55
2023-03-17T08:07:24.972Z,40.83
2023-03-17T08:08:24.983Z,40.69
2023-03-17T08:09:24.968Z,39.94
2023-03-17T08:10:24.993Z,39.31
2023-03-17T08:11:24.951Z,38.68
2023-03-17T08:12:24.872Z,38.06
2023-03-17T08:13:24.869Z,37.61
2023-03-17T08:14:24.848Z,36.68
2023-03-17T08:15:31.643Z,36.05
2023-03-17T08:16:27.274Z,35.82
2023-03-17T08:17:24.855Z,34.85
2023-03-17T08:18:24.835Z,33.91
2023-03-17T08:19:24.798Z,33.05
2023-03-17T08:20:24.794Z,32.55
2023-03-17T08:21:24.819Z,32.35
2023-03-17T08:22:24.787Z,33.81
2023-03-17T08:23:24.777Z,34.41
2023-03-17T08:24:24.801Z,36.24
2023-03-17T08:25:24.752Z,38.14
2023-03-17T08:26:24.750Z,39.06
2023-03-17T08:27:24.703Z,39.49
2023-03-17T08:28:24.732Z,40.81
2023-03-17T08:29:24.714Z,39.90
2023-03-17T08:30:24.680Z,39.90
2023-03-17T08:31:24.755Z,39.73
2023-03-17T08:32:24.650Z,40.36
2023-03-17T08:33:24.680Z,40.99
2023-03-17T08:34:24.655Z,41.50
2023-03-17T08:35:24.682Z,41.81
2023-03-17T08:36:24.617Z,40.87
2023-03-17T08:37:24.610Z,40.65
2023-03-17T08:38:24.606Z,40.24
2023-03-17T08:39:24.596Z,41.18
2023-03-17T08:40:24.607Z,40.99
2023-03-17T08:41:24.549Z,41.11
2023-03-17T08:42:24.558Z,41.73
2023-03-17T08:43:24.542Z,41.93
2023-03-17T08:44:24.534Z,42.02
2023-03-17T08:45:24.544Z,41.93
2023-03-17T08:46:24.564Z,42.03
2023-03-17T08:47:24.490Z,42.24
2023-03-17T08:48:24.515Z,41.89
2023-03-17T08:49:24.478Z,42.81
2023-03-17T08:50:24.473Z,43.04
2023-03-17T08:51:24.782Z,43.57
2023-03-17T08:52:24.462Z,43.98
2023-03-17T08:53:24.468Z,43.85
2023-03-17T08:54:24.445Z,43.96
2023-03-17T08:55:24.456Z,43.75
2023-03-17T08:56:24.426Z,43.75
2023-03-17T08:57:24.395Z,43.75
2023-03-17T08:58:24.421Z,43.85
2023-03-17T08:59:24.379Z,43.24
2023-03-17T09:00:24.378Z,43.77
2023-03-17T09:01:24.476Z,44.29
2023-03-17T09:02:24.407Z,43.77
2023-03-17T09:03:24.352Z,44.41
2023-03-17T09:04:24.345Z,44.71
2023-03-17T09:05:24.371Z,44.62
2023-03-17T09:06:24.334Z,44.62
2023-03-17T09:07:24.310Z,45.13
2023-03-17T09:08:24.290Z,44.92
2023-03-17T09:09:24.312Z,45.03
2023-03-17T09:10:24.279Z,44.82
2023-03-17T09:11:24.281Z,45.03
2023-03-17T09:12:24.243Z,44.92
2023-03-17T09:13:24.250Z,45.13
2023-03-17T09:14:24.229Z,44.82
2023-03-17T09:15:24.204Z,44.51
2023-03-17T09:16:24.473Z,44.49
2023-03-17T09:17:24.188Z,44.49
2023-03-17T09:18:24.207Z,44.08
2023-03-17T09:19:24.174Z,43.98
2023-03-17T09:20:24.179Z,44.06
2023-03-17T09:21:24.153Z,43.75
2023-03-17T09:22:24.122Z,43.44
2023-03-17T09:23:24.153Z,42.91
2023-03-17T09:24:24.112Z,43.22
2023-03-17T09:25:24.131Z,43.12
2023-03-17T09:26:24.132Z,43.32
2023-03-17T09:27:24.074Z,43.02
2023-03-17T09:28:24.090Z,43.12
2023-03-17T09:29:24.083Z,43.22
2023-03-17T09:30:24.080Z,43.20
2023-03-17T09:31:24.196Z,43.20
2023-03-17T09:32:24.055Z,42.67
2023-03-17T09:33:24.058Z,42.46
2023-03-17T09:34:24.039Z,42.87
2023-03-17T09:35:24.020Z,42.34
2023-03-17T09:36:24.042Z,41.63
2023-03-17T09:37:23.970Z,41.52
2023-03-17T09:38:23.982Z,41.50
2023-03-17T09:39:24.009Z,41.40
2023-03-17T09:40:23.963Z,41.28
2023-03-17T09:41:23.969Z,41.40
2023-03-17T09:42:23.935Z,41.71
2023-03-17T09:43:23.917Z,41.69
2023-03-17T09:44:23.925Z,41.18
2023-03-17T09:45:23.896Z,41.18
2023-03-17T09:46:23.910Z,40.85
2023-03-17T09:47:23.889Z,41.04
2023-03-17T09:48:23.866Z,41.33
2023-03-17T09:49:23.874Z,40.08
2023-03-17T09:50:23.935Z,39.65
2023-03-17T09:51:23.824Z,39.42
2023-03-17T09:52:23.843Z,37.97
2023-03-17T09:53:23.803Z,37.34
2023-03-17T09:54:23.842Z,37.45
2023-03-17T09:55:23.795Z,37.10
2023-03-17T09:56:23.787Z,36.53
2023-03-17T09:57:23.771Z,35.48
2023-03-17T09:58:23.753Z,35.14
2023-03-17T09:59:23.846Z,34.11
2023-03-17T10:00:23.757Z,33.94
2023-03-17T10:01:23.790Z,34.56
2023-03-17T10:02:23.733Z,34.85
2023-03-17T10:03:23.729Z,34.23
2023-03-17T10:04:23.710Z,34.74
2023-03-17T10:05:23.804Z,34.23
2023-03-17T10:06:23.694Z,34.74
2023-03-17T10:07:23.686Z,34.65
2023-03-17T10:08:31.318Z,35.58
2023-03-17T10:09:26.572Z,35.19
2023-03-17T10:10:24.225Z,36.95
2023-03-17T10:11:23.626Z,38.47
2023-03-17T10:12:23.644Z,37.88
2023-03-17T10:13:23.583Z,37.80
2023-03-17T10:14:23.657Z,37.41
2023-03-17T10:15:23.604Z,38.63
2023-03-17T10:16:23.614Z,38.81
2023-03-17T10:17:23.571Z,37.49
2023-03-17T10:18:23.550Z,37.37
2023-03-17T10:19:23.566Z,36.63
2023-03-17T10:20:23.610Z,35.88
2023-03-17T10:21:23.508Z,35.24
2023-03-17T10:22:23.511Z,35.01
2023-03-17T10:23:23.490Z,34.09
2023-03-17T10:24:23.479Z,34.28
2023-03-17T10:25:23.480Z,34.18
2023-03-17T10:26:23.529Z,34.30
2023-03-17T10:27:23.446Z,34.62
2023-03-17T10:28:23.469Z,35.04
2023-03-17T10:29:23.441Z,34.94
2023-03-17T10:30:23.431Z,35.14
2023-03-17T10:31:23.492Z,34.95
2023-03-17T10:32:23.388Z,35.26
2023-03-17T10:33:23.559Z,35.35
2023-03-17T10:34:23.380Z,34.82
2023-03-17T10:35:23.402Z,34.08
2023-03-17T10:36:23.372Z,33.88
2023-03-17T10:37:23.341Z,33.78
2023-03-17T10:38:23.352Z,33.61
2023-03-17T10:39:23.330Z,34.34
2023-03-17T10:40:23.345Z,35.00
2023-03-17T10:41:23.300Z,35.72
2023-03-17T10:42:23.297Z,35.72
2023-03-17T10:43:23.404Z,36.10
2023-03-17T10:44:23.773Z,36.10
2023-03-17T10:45:23.268Z,35.78
2023-03-17T10:46:23.399Z,35.46
2023-03-17T10:47:23.232Z,35.04
2023-03-17T10:48:23.255Z,34.74
2023-03-17T10:49:23.232Z,34.52
2023-03-17T10:50:23.225Z,34.40
2023-03-17T10:51:23.225Z,34.28
2023-03-17T10:52:23.221Z,34.08
2023-03-17T10:53:23.204Z,33.66
2023-03-17T10:54:23.146Z,33.66
2023-03-17T10:55:23.147Z,33.47
2023-03-17T10:56:23.150Z,33.89
2023-03-17T10:57:23.133Z,34.69
2023-03-17T10:58:23.103Z,33.88
2023-03-17T10:59:23.142Z,34.22
2023-03-17T11:00:23.079Z,34.92
2023-03-17T11:01:23.181Z,34.82
2023-03-17T11:02:23.109Z,34.52
2023-03-17T11:03:23.144Z,35.14
2023-03-17T11:04:23.099Z,35.57
2023-03-17T11:05:23.067Z,35.66
2023-03-17T11:06:23.036Z,35.99
2023-03-17T11:07:23.027Z,36.39
2023-03-17T11:08:23.002Z,36.47
2023-03-17T11:09:23.018Z,36.37
2023-03-17T11:10:22.977Z,36.47
2023-03-17T11:11:23.035Z,36.07
2023-03-17T11:12:23.019Z,36.25
2023-03-17T11:13:23.104Z,36.15
2023-03-17T11:14:22.953Z,36.87
2023-03-17T11:15:22.943Z,36.05
2023-03-17T11:16:22.952Z,35.97
2023-03-17T11:17:22.909Z,35.97
2023-03-17T11:18:22.896Z,36.27
2023-03-17T11:19:22.931Z,35.85
2023-03-17T11:20:22.894Z,36.15
2023-03-17T11:21:22.891Z,35.73
2023-03-17T11:22:22.862Z,35.21
2023-03-17T11:23:22.858Z,35.09
2023-03-17T11:24:22.841Z,34.89
2023-03-17T11:25:22.840Z,34.79
2023-03-17T11:26:22.820Z,35.09
2023-03-17T11:27:22.806Z,34.97
2023-03-17T11:28:22.783Z,34.86
2023-03-17T11:29:22.843Z,34.77
2023-03-17T11:30:22.758Z,34.47
2023-03-17T11:31:22.837Z,34.88
2023-03-17T11:32:22.753Z,34.79
2023-03-17T11:33:22.764Z,34.89
2023-03-17T11:34:22.753Z,35.08
2023-03-17T11:35:22.752Z,35.28
2023-03-17T11:36:22.704Z,35.08
2023-03-17T11:37:22.700Z,35.38
2023-03-17T11:38:22.723Z,35.26
2023-03-17T11:39:22.730Z,34.64
2023-03-17T11:40:22.740Z,34.54
2023-03-17T11:41:22.650Z,34.01
2023-03-17T11:42:22.641Z,33.81
2023-03-17T11:43:22.642Z,33.59
2023-03-17T11:44:22.661Z,33.38
2023-03-17T11:45:22.631Z,33.47
2023-03-17T11:46:22.790Z,32.34
2023-03-17T11:47:22.621Z,32.35
2023-03-17T11:48:22.571Z,32.56
2023-03-17T11:49:22.579Z,32.75
2023-03-17T11:50:22.547Z,32.24
2023-03-17T11:51:22.538Z,31.81
2023-03-17T11:52:22.530Z,31.89
2023-03-17T11:53:22.540Z,30.90
2023-03-17T11:54:22.560Z,31.33
2023-03-17T11:55:22.499Z,32.26
2023-03-17T11:56:22.504Z,32.56
2023-03-17T11:57:22.551Z,32.04
2023-03-17T11:58:22.478Z,32.14
2023-03-17T11:59:22.512Z,32.34
2023-03-17T12:00:22.668Z,32.35
2023-03-17T12:01:22.444Z,32.24
2023-03-17T12:02:22.412Z,32.04
2023-03-17T12:03:22.629Z,32.04
2023-03-17T12:04:22.515Z,32.04
2023-03-17T12:05:22.404Z,32.75
2023-03-17T12:06:22.385Z,32.64
2023-03-17T12:07:23.222Z,32.35
2023-03-17T12:08:22.348Z,32.96
2023-03-17T12:09:22.359Z,32.78
2023-03-17T12:10:22.404Z,33.09
2023-03-17T12:11:22.355Z,33.72
2023-03-17T12:12:22.321Z,33.72
2023-03-17T12:13:22.320Z,33.80
2023-03-17T12:14:22.322Z,33.72
2023-03-17T12:15:22.308Z,33.51
2023-03-17T12:16:22.276Z,34.15
2023-03-17T12:17:23.135Z,34.88
2023-03-17T12:18:22.248Z,34.97
2023-03-17T12:19:22.257Z,34.67
2023-03-17T12:20:22.246Z,35.09
2023-03-17T12:21:22.235Z,35.19
2023-03-17T12:22:22.209Z,35.30
2023-03-17T12:23:22.277Z,35.39
2023-03-17T12:24:22.208Z,35.28
2023-03-17T12:25:22.190Z,35.38
2023-03-17T12:26:22.190Z,35.06
2023-03-17T12:27:22.178Z,34.64
2023-03-17T12:28:22.141Z,34.54
2023-03-17T12:29:22.149Z,34.62
2023-03-17T12:30:22.114Z,33.81
2023-03-17T12:31:22.226Z,33.92
2023-03-17T12:32:22.133Z,33.93
2023-03-17T12:33:22.106Z,34.23
2023-03-17T12:34:22.102Z,34.13
2023-03-17T12:35:22.086Z,34.42
2023-03-17T12:36:22.090Z,34.22
2023-03-17T12:37:22.057Z,34.01
2023-03-17T12:38:22.030Z,34.42
2023-03-17T12:39:22.118Z,34.22
2023-03-17T12:40:22.088Z,34.20
2023-03-17T12:41:22.018Z,34.00
2023-03-17T12:42:21.991Z,33.41
2023-03-17T12:43:21.986Z,33.72
2023-03-17T12:44:22.006Z,34.12
2023-03-17T12:45:22.006Z,33.80
2023-03-17T12:46:21.986Z,33.80
2023-03-17T12:47:21.945Z,34.10
2023-03-17T12:48:21.961Z,34.19
2023-03-17T12:49:21.923Z,33.48
2023-03-17T12:50:21.968Z,33.78
2023-03-17T12:51:21.939Z,33.28
2023-03-17T12:52:21.919Z,33.50